Map

Track Data

SID SEASON NUMBER BASIN SUBBASIN NAME ISO_TIME NATURE LAT LON WMO_WIND WMO_PRES WMO_AGENCY TRACK_TYPE DIST2LAND LANDFALL IFLAG USA_AGENCY USA_ATCF_ID USA_LAT USA_LON USA_RECORD USA_STATUS USA_WIND USA_PRES USA_SSHS USA_R34_NE USA_R34_SE USA_R34_SW USA_R34_NW USA_R50_NE USA_R50_SE USA_R50_SW USA_R50_NW USA_R64_NE USA_R64_SE USA_R64_SW USA_R64_NW USA_POCI USA_ROCI USA_RMW USA_EYE TOKYO_LAT TOKYO_LON TOKYO_GRADE TOKYO_WIND TOKYO_PRES TOKYO_R50_DIR TOKYO_R50_LONG TOKYO_R50_SHORT TOKYO_R30_DIR TOKYO_R30_LONG TOKYO_R30_SHORT TOKYO_LAND CMA_LAT CMA_LON CMA_CAT CMA_WIND CMA_PRES HKO_LAT HKO_LON HKO_CAT HKO_WIND HKO_PRES NEWDELHI_LAT NEWDELHI_LON NEWDELHI_GRADE NEWDELHI_WIND NEWDELHI_PRES NEWDELHI_CI NEWDELHI_DP NEWDELHI_POCI REUNION_LAT REUNION_LON REUNION_TYPE REUNION_WIND REUNION_PRES REUNION_TNUM REUNION_CI REUNION_RMW REUNION_R34_NE REUNION_R34_SE REUNION_R34_SW REUNION_R34_NW REUNION_R50_NE REUNION_R50_SE REUNION_R50_SW REUNION_R50_NW REUNION_R64_NE REUNION_R64_SE REUNION_R64_SW REUNION_R64_NW BOM_LAT BOM_LON BOM_TYPE BOM_WIND BOM_PRES BOM_TNUM BOM_CI BOM_RMW BOM_R34_NE BOM_R34_SE BOM_R34_SW BOM_R34_NW BOM_R50_NE BOM_R50_SE BOM_R50_SW BOM_R50_NW BOM_R64_NE BOM_R64_SE BOM_R64_SW BOM_R64_NW BOM_ROCI BOM_POCI BOM_EYE BOM_POS_METHOD BOM_PRES_METHOD NADI_LAT NADI_LON NADI_CAT NADI_WIND NADI_PRES WELLINGTON_LAT WELLINGTON_LON WELLINGTON_WIND WELLINGTON_PRES DS824_LAT DS824_LON DS824_STAGE DS824_WIND DS824_PRES TD9636_LAT TD9636_LON TD9636_STAGE TD9636_WIND TD9636_PRES TD9635_LAT TD9635_LON TD9635_WIND TD9635_PRES TD9635_ROCI NEUMANN_LAT NEUMANN_LON NEUMANN_CLASS NEUMANN_WIND NEUMANN_PRES MLC_LAT MLC_LON MLC_CLASS MLC_WIND MLC_PRES USA_GUST BOM_GUST BOM_GUST_PER REUNION_GUST REUNION_GUST_PER USA_SEAHGT USA_SEARAD_NE USA_SEARAD_SE USA_SEARAD_SW USA_SEARAD_NW STORM_SPEED STORM_DIR
1971336S09139 1972 157 SP EA KITTY 1971-12-02 00:00:00 TS -9.00000 139.000 1005 bom main 78 78 O_____O__OO___ jtwc_sh SH041972 -9.00000 139.000 35 0 -9.00000 139.000 1005 -9.00000 139.000 TC 20 1005 -9.00000 139.000 4 8 241
1971336S09139 1972 157 SP EA KITTY 1971-12-02 03:00:00 TS -9.20076 138.630 1005 bom main 90 89 P_____O__PP___ SH041972 -9.19753 138.663 35 0 -9.20000 138.600 1005 -9.19761 138.590 TC 20 1005 -9.21112 138.636 4 8 241
1971336S09139 1972 157 SP EA KITTY 1971-12-02 06:00:00 TS -9.40331 138.269 1005 bom main 112 112 O_____O__OP_O_ jtwc_sh SH041972 -9.40000 138.300 35 0 -9.40000 138.200 1005 -9.40000 138.200 TC 20 1005 -9.41766 138.268 4 -9.40000 138.500 TC 20 1004 8 241
1971336S09139 1972 157 SP EA KITTY 1971-12-02 09:00:00 TS -9.60233 137.893 1004 bom main 134 134 P_____O__PP_P_ SH041972 -9.60750 137.900 35 0 -9.60000 137.800 1004 -9.60744 137.842 TC 20 1004 -9.61537 137.890 4 -9.55003 138.163 TC 20 1004 8 242
1971336S09139 1972 157 SP EA KITTY 1971-12-02 12:00:00 TS -9.78696 137.539 1004 bom main 157 157 O_____O__OO_O_ jtwc_sh SH041972 -9.80000 137.500 35 0 -9.80000 137.500 1004 -9.80000 137.500 TC 20 1004 -9.80000 137.500 4 -9.70000 137.800 TC 20 1004 8 243
1971336S09139 1972 157 SP EA KITTY 1971-12-02 15:00:00 TS -9.95195 137.192 1004 bom main 184 184 P_____O__PP_P_ SH041972 -9.96492 137.150 -1 -10.0000 137.200 1004 -9.96494 137.157 TC 20 1004 -9.96694 137.097 4 -9.85000 137.400 TC 20 1004 8 247
1971336S09139 1972 157 SP EA KITTY 1971-12-02 18:00:00 TS -10.0850 136.816 1004 bom main 209 201 O_____O__OP_O_ jtwc_sh SH041972 -10.1000 136.800 -1 -10.1000 136.800 1004 -10.1000 136.800 TC 20 1004 -10.1101 136.698 4 -10.0000 137.000 TC 20 1004 8 250
1971336S09139 1972 157 SP EA KITTY 1971-12-02 21:00:00 TS -10.2272 136.417 1004 bom main 201 191 P_____O__PP_P_ SH041972 -10.2225 136.385 -1 -10.3000 136.400 1004 -10.2226 136.378 TC 20 1004 -10.2232 136.325 4 -10.1725 136.628 TC 20 1004 8 254
1971336S09139 1972 157 SP EA KITTY 1971-12-03 00:00:00 TS -10.3000 136.050 1004 bom main 195 195 O_____O__OO_O_ jtwc_sh SH041972 -10.3000 136.000 -1 -10.3000 136.000 1004 -10.3000 136.000 TC 20 1004 -10.3000 136.000 4 -10.3000 136.300 TC 20 1004 6 262
1971336S09139 1972 157 SP EA KITTY 1971-12-03 03:00:00 TS -10.3165 135.795 1003 bom main 201 201 P_____O__PP_P_ SH041972 -10.3149 135.712 -1 -10.3000 135.800 1003 -10.3149 135.770 TC 22 1003 -10.3316 135.758 4 -10.3225 136.020 TC 20 1004 4 269
1971336S09139 1972 157 SP EA KITTY 1971-12-03 06:00:00 TS -10.3049 135.594 1003 bom main 201 201 O_____O__OP_O_ jtwc_sh SH041972 -10.3000 135.500 -1 -10.3000 135.600 1003 -10.3000 135.600 TC 25 1003 -10.3296 135.562 4 -10.3000 135.800 TC 20 1005 4 272
1971336S09139 1972 157 SP EA KITTY 1971-12-03 09:00:00 TS -10.3021 135.424 1003 bom main 202 202 P_____O__PP_P_ SH041972 -10.2999 135.350 -1 -10.3000 135.400 1003 -10.3000 135.408 TC 25 1002 -10.3129 135.386 4 -10.2999 135.650 TC 17 1005 3 271
1971336S09139 1972 157 SP EA KITTY 1971-12-03 12:00:00 TS -10.3000 135.250 1002 bom main 204 202 O_____O__OO_O_ jtwc_sh SH041972 -10.3000 135.200 -1 -10.3000 135.200 1002 -10.3000 135.200 TC 25 1002 -10.3000 135.200 4 -10.3000 135.500 TC 15 1006 4 270
1971336S09139 1972 157 SP EA KITTY 1971-12-03 15:00:00 TS -10.2986 135.009 1002 bom main 202 200 P_____O__PP_P_ SH041972 -10.2925 134.965 -1 -10.3000 134.900 1002 -10.2925 134.957 TC 25 1002 -10.3217 134.993 4 -10.2925 135.272 TC 17 1005 5 269
1971336S09139 1972 157 SI WA KITTY 1971-12-03 18:00:00 TS -10.3083 134.761 1002 bom main 200 184 O_____O__OP_O_ jtwc_sh SH041972 -10.3000 134.700 -1 -10.3000 134.700 1002 -10.3000 134.700 TC 25 1002 -10.3497 134.768 4 -10.3000 135.000 TC 20 1004 5 264
1971336S09139 1972 157 SI WA KITTY 1971-12-03 21:00:00 TS -10.3463 134.526 1002 bom main 184 166 P_____O__PP_P_ SH041972 -10.3499 134.480 -1 -10.3000 134.500 1002 -10.3499 134.473 TC 25 1002 -10.3779 134.508 4 -10.3500 134.715 TC 22 1003 5 260
1971336S09139 1972 157 SI WA KITTY 1971-12-04 00:00:00 TS -10.4000 134.233 1002 bom main 162 156 O_____O__OO_O_ jtwc_sh SH041972 -10.4000 134.200 -1 -10.4000 134.200 1002 -10.4000 134.200 TC 25 1002 -10.4000 134.200 4 -10.4000 134.400 TC 25 1002 7 265
1971336S09139 1972 157 SI WA KITTY 1971-12-04 03:00:00 TS -10.4022 133.841 1002 bom main 149 124 P_____O__PP_P_ SH041972 -10.4076 133.772 -1 -10.4000 133.800 1002 -10.4075 133.830 TC 25 1002 -10.3832 133.797 4 -10.4074 134.072 TC 25 1002 8 270
1971336S09139 1972 157 SI WA KITTY 1971-12-04 06:00:00 TS -10.3938 133.408 1002 bom main 124 112 O_____O__OP_O_ jtwc_sh SH041972 -10.4000 133.300 -1 -10.4000 133.400 1002 -10.4000 133.400 TC 25 1002 -10.3630 133.350 4 -10.4000 133.700 TC 25 1002 9 271
1971336S09139 1972 157 SI WA KITTY 1971-12-04 09:00:00 TS -10.3836 132.969 1002 bom main 112 95 P_____O__PP_P_ SH041972 -10.3850 132.870 -1 -10.4000 133.000 1002 -10.3851 132.927 TC 25 1002 -10.3613 132.903 4 -10.3851 133.242 TC 25 1002 8 270
1971336S09139 1972 157 SI WA KITTY 1971-12-04 12:00:00 TS -10.4000 132.550 1002 bom main 95 78 O_____O__OO_O_ jtwc_sh SH041972 -10.4000 132.500 -1 -10.4000 132.500 1002 -10.4000 132.500 TC 25 1002 -10.4000 132.500 4 -10.4000 132.800 TC 25 1002 7 262
1971336S09139 1972 157 SI WA KITTY 1971-12-04 15:00:00 TS -10.4783 132.275 1002 bom main 78 67 P_____O__PP_P_ SH041972 -10.4699 132.227 -1 -10.5000 132.300 1002 -10.4699 132.220 TC 25 1002 -10.4903 132.204 4 -10.4699 132.470 TC 25 1001 6 248
1971336S09139 1972 157 SI WA KITTY 1971-12-04 18:00:00 TS -10.6041 132.026 1002 bom main 67 57 O_____O__OP_O_ jtwc_sh SH041972 -10.6000 132.000 -1 -10.6000 132.000 1002 -10.6000 132.000 TC 25 1002 -10.6246 131.955 4 -10.6000 132.200 TC 25 1001 6 239
1971336S09139 1972 157 SI WA KITTY 1971-12-04 20:30:00 TS -10.7559 131.810 1001 bom main 49 49 P_____O__PP_P_ SH041972 -10.7441 131.792 -1 -10.8000 131.700 1001 -10.7374 131.811 TC 27 1001 -10.7656 131.766 4 -10.7440 131.997 TC 27 1000 6 234
1971336S09139 1972 157 SI WA KITTY 1971-12-04 21:00:00 TS -10.7831 131.776 1000 bom main 49 40 P_____O__PP_P_ SH041972 -10.7775 131.750 -1 -10.8000 131.700 1000 4 -10.7699 131.772 TC 27 1001 -10.7966 131.729 4 -10.7774 131.957 TC 27 1000 6 229
1971336S09139 1972 157 SI WA KITTY 1971-12-05 00:00:00 TS -11.0000 131.527 1000 bom main 40 11 O_____O__OO_O_ jtwc_sh SH041972 -11.0000 131.500 -1 -11.0000 131.500 1000 -11.0000 131.500 TC 30 1000 -11.0000 131.500 2 35 -11.0000 131.700 TC 30 1000 7 229
1971336S09139 1972 157 SI WA KITTY 1971-12-05 03:00:00 TS -11.2557 131.223 1000 bom main 0 0 P_____O__PP_P_ SH041972 -11.2425 131.257 -1 -11.3000 131.100 1000 -11.2852 131.130 TC 30 1000 -11.2284 131.249 2 35 -11.2451 131.373 TC 30 1000 8 229
1971336S09139 1972 157 SI WA KITTY 1971-12-05 06:00:00 TS -11.5177 130.924 1000 bom main 0 0 O_____O__OP_O_ jtwc_sh SH041972 -11.5000 131.000 -1 -11.6000 130.700 1000 -11.6000 130.700 TC 30 1000 -11.4754 130.978 2 35 -11.5000 131.000 TC 30 1000 8 228
1971336S09139 1972 157 SI WA KITTY 1971-12-05 07:00:00 TS -11.5993 130.827 1000 bom main 0 0 P_____O___P___ SH041972 -11.5851 130.907 -1 -11.7000 130.500 1000 TC -11.5608 130.884 2 35 TC 7 224
1971336S09139 1972 157 SI WA KITTY 1971-12-05 09:00:00 TS -11.7828 130.661 1000 bom main 10 0 P_____O___P___ SH041972 -11.7526 130.710 -1 -12.0000 130.400 1000 TC -11.7347 130.693 2 35 TC 7 226
1971336S09139 1972 157 SI WA KITTY 1971-12-05 12:00:00 TS -12.0000 130.400 main 22 O_________O___ jtwc_sh SH041972 -12.0000 130.400 -1 -12.0000 130.400 2 35 7 230

Digital Typhoon Data and Search

About IBTrACS Database

This database is a web-friendly format of International Best Track Archive for Climate Stewardship (IBTrACS), a global best track data archive curated by NOAA dating back to 1842.

Updated: 2021-10-21